St. Paul, Alberta

Past 24 Hour Conditions

This table is a summary of hourly weather conditions for the past 24 hours. This summary includes the following parameters: temperature, humidity, dew point, wind speed and direction, air pressure, visibility and/or wind chill and humidex.
Date / Time
(MDT)
Conditions Temp (°F) Humidity (%) Dew Point (°F) Wind (mph) Pressure (inches) Vis (mi) Wind Chill
17 April 2014
19:00 N/A 28 86 25 E 16 N/A N/A 17
18:00 N/A 28 85 24 E 15 N/A N/A 17
17:00 N/A 29   84 25 E 17 N/A N/A 17
16:00 N/A 29   81 24 ESE 18 N/A N/A 17
15:00 N/A 28 85 24 E 14 N/A N/A 17
14:00 N/A 28 89 25 E 13 N/A N/A 17
13:00 N/A 28 85 24 E 13 N/A N/A 17
12:00 N/A 27 85 23 E 17 N/A N/A 15
11:00 N/A 26 87 23 E 17 N/A N/A 14
10:00 N/A 25 89 22 E 16 N/A N/A 12
9:00 N/A 24 88 21 E 12 N/A N/A 13
8:00 N/A 23 90 20 E 13 N/A N/A 11
7:00 N/A 22 92 20 E 15 N/A N/A 9
6:00 N/A 21   92 19 E 14 N/A N/A 8
5:00 N/A 21   91 18 E 10 N/A N/A 10
4:00 N/A 21   87 18 ESE 10 N/A N/A 10
3:00 N/A 22 84 18 ESE 10 N/A N/A 12
2:00 N/A 23 80 18 ESE 11 N/A N/A 12
1:00 N/A 25 87 21 ESE 10 N/A N/A 15
00:00 N/A 25 88 23 ESE 9 N/A N/A 16
16 April 2014
23:00 N/A 26 89 23 ESE 13 N/A N/A 14
22:00 N/A 25 92 23 ESE 11 N/A N/A 15
21:00 N/A 25 92 23 ESE 9 N/A N/A 16
20:00 N/A 26 89 23 ESE 8 N/A N/A 18
19:00 N/A 27 81 22 ESE 11 N/A N/A 16
N/A
Not available
 ↑ 
Highest temperature
 ↓ 
Lowest temperature
*
Value not significant.

If you require additional historical weather information, please visit Climate Data Online.